Terminal Aerodrome Forecast
Issued by NWS

Home | Current Version | Previous Version | Text Only | Print | Product List | Glossary On
Versions: 1 2 3 4 5 6 7 8 9 10 11 12 13 14 15 16 17 18 19 20 21 22 23 24 25 26
000
FTUS43 KABR 281700
TAFATY
TAF
KATY 281720Z 2818/2918 16016KT P6SM SKC
     FM281900 17020G27KT P6SM SKC
     FM290500 18017KT P6SM -SHRA OVC060
     FM290800 22014KT P6SM BKN100
     FM291200 27019G29KT P6SM -SHRA OVC030
     FM291400 32025G36KT P6SM OVC030=

USA.gov is the U.S. government's official web portal to all federal, state and local government web resources and services.